Latest Weather Observations for Rockhampton

IDQ60801

Issued at 8:02 pm EST Saturday 30 May 2015 (issued every 30 minutes, with the page automatically refreshed every 10 minutes)

About weather observations | Map of weather stations | Latest weather observations for QLD | Other Formats
Station Details ID: 039083 Name: ROCKHAMPTON AERO Lat: -23.38 Lon: 150.48 Height: 10.4 m
Data from the previous 72 hours. | See also: Recent months at Rockhampton
Date/Time
EST
Temp
°C
App
Temp
°C
Dew
Point
Rel
Hum
%
Delta-T
°C
Wind Press
QNH
hPa
Press
MSL
hPa
Rain
since 9 am
mm
Dir
 
Spd
km/h
Gust
km/h
Spd
kts
Gust
kts
30/07:30pm 20.7 22.1 17.4 81 2.0 S 6 7 3 4 1019.3 - 0.0
30/07:00pm 21.3 23.9 17.6 79 2.3 CALM 0 0 0 0 1019.2 - 0.0
30/05:30pm 23.1 24.0 18.3 74 3.0 NE 11 13 6 7 1018.2 - 0.0
30/05:00pm 25.1 25.1 17.2 61 4.9 NE 13 19 7 10 1018.0 - 0.0
30/04:30pm 26.1 26.1 17.1 57 5.6 NE 13 19 7 10 1017.9 - 0.0
30/04:00pm 27.4 27.0 16.2 50 6.9 NE 13 30 7 16 1017.5 - 0.0
30/03:30pm 27.4 27.8 16.4 51 6.8 NE 9 13 5 7 1017.6 - 0.0
30/03:00pm 27.5 27.3 16.7 51 6.7 NE 13 19 7 10 1017.6 1017.6 0.0
30/02:30pm 27.7 27.5 15.6 47 7.4 E 11 17 6 9 1017.9 - 0.0
30/02:00pm 26.6 27.2 15.8 51 6.6 ENE 7 15 4 8 1018.2 - 0.0
30/01:30pm 27.9 28.2 15.0 45 7.8 E 7 15 4 8 1018.7 - 0.0
30/01:00pm 28.2 28.5 16.0 47 7.5 NE 9 13 5 7 1019.2 - 0.0
30/12:30pm 28.1 28.3 16.7 50 7.1 E 11 19 6 10 1019.7 - 0.0
30/12:00pm 26.0 26.2 16.8 57 5.7 E 11 15 6 8 1020.1 1020.1 0.0
30/11:30am 26.2 26.6 17.2 57 5.6 SE 11 17 6 9 1020.8 - 0.0
30/11:00am 26.7 26.7 17.2 56 5.9 ESE 13 19 7 10 1021.5 - 0.0
30/10:30am 25.1 25.5 18.1 65 4.4 ESE 13 20 7 11 1022.2 - 0.0
30/10:00am 24.3 24.6 18.8 71 3.5 SE 15 20 8 11 1022.4 - 0.0
30/09:30am 23.2 23.5 18.8 76 2.8 ESE 15 24 8 13 1022.8 - 0.0
30/09:00am 22.3 22.6 18.8 80 2.2 SE 15 22 8 12 1022.9 1022.9 0.0
30/08:30am 21.6 22.0 18.9 84 1.7 SE 15 20 8 11 1022.7 - 0.0
30/07:30am 19.7 21.1 18.7 94 0.6 SE 9 15 5 8 1022.1 - 0.0
30/07:00am 18.9 21.8 18.3 96 0.4 CALM 0 - 0 - 1021.7 - 0.0
30/06:51am 18.9 21.1 18.3 96 0.4 SE 4 9 2 5 1021.8 - 0.0
30/06:30am 19.1 20.4 18.5 96 0.4 ESE 9 13 5 7 1021.7 - 0.0
30/05:47am 19.1 20.3 18.3 95 0.5 SE 9 15 5 8 1021.3 - 0.0
30/05:30am 19.0 19.9 18.4 96 0.4 SE 11 17 6 9 1021.2 - 0.0
30/05:27am 18.9 19.8 18.3 96 0.4 ESE 11 17 6 9 1021.1 - 0.0
30/05:00am 18.8 19.7 18.3 97 0.3 SE 11 15 6 8 1021.0 - 0.0
30/04:48am 18.8 19.4 18.5 98 0.2 SE 13 17 7 9 1020.9 - 0.0
30/04:30am 18.9 19.4 18.3 96 0.4 SE 13 19 7 10 1020.9 - 0.0
30/04:00am 18.9 19.4 18.3 96 0.4 SE 13 22 7 12 1020.8 - 0.0
30/03:53am 19.1 19.6 18.3 95 0.5 SE 13 17 7 9 1020.8 - 0.0
30/03:30am 19.1 19.4 18.0 93 0.7 ESE 13 15 7 8 1020.9 - 0.0
30/03:00am 19.3 20.0 18.0 92 0.8 ESE 11 17 6 9 1021.0 1021.0 0.0
30/02:30am 19.4 19.7 17.9 91 0.9 ESE 13 20 7 11 1021.1 - 0.0
30/02:00am 19.4 19.8 18.1 92 0.8 SE 13 17 7 9 1021.3 - 0.0
30/01:30am 19.2 19.9 17.9 92 0.8 SE 11 17 6 9 1021.4 - 0.0
30/01:00am 19.0 19.3 17.9 93 0.7 SE 13 17 7 9 1021.6 - 0.0
30/12:30am 18.7 19.7 17.7 94 0.6 S 9 11 5 6 1021.8 - 0.0
30/12:00am 18.6 20.0 17.9 96 0.4 SSW 7 9 4 5 1022.1 1022.1 0.0
 
Date/Time
EST
Temp
°C
App
Temp
°C
Dew
Point
Rel
Hum
%
Delta-T
°C
Wind Press
QNH
hPa
Press
MSL
hPa
Rain
since 9 am
mm
Dir
 
Spd
km/h
Gust
km/h
Spd
kts
Gust
kts
29/11:30pm 19.0 20.6 18.2 95 0.5 S 7 11 4 6 1022.4 - 0.0
29/11:00pm 19.0 20.7 18.0 94 0.6 S 6 9 3 5 1022.6 - 0.0
29/10:30pm 19.4 20.6 18.3 93 0.7 S 9 11 5 6 1022.8 - 0.0
29/10:00pm 19.7 21.0 18.4 92 0.8 SSE 9 11 5 6 1022.8 - 0.0
29/09:30pm 20.0 21.9 18.6 92 0.9 SE 6 9 3 5 1022.6 - 0.0
29/09:00pm 19.5 20.5 17.7 89 1.1 SSW 9 11 5 6 1022.6 1022.6 0.0
29/08:30pm 19.7 21.9 17.4 86 1.4 SW 2 7 1 4 1022.6 - 0.0
29/08:00pm 20.4 22.7 17.8 85 1.6 SW 2 7 1 4 1022.6 - 0.0
29/07:30pm 21.0 23.1 17.1 78 2.4 SSE 2 7 1 4 1022.4 - 0.0
29/07:00pm 21.8 23.2 17.4 76 2.7 E 6 9 3 5 1022.1 - 0.0
29/06:30pm 22.1 23.7 16.8 72 3.2 E 4 9 2 5 1021.7 - 0.0
29/06:00pm 22.5 22.5 17.1 71 3.3 NE 13 17 7 9 1021.4 1021.4 0.0
29/05:30pm 23.2 23.7 16.6 66 4.0 ENE 9 15 5 8 1021.1 - 0.0
29/05:00pm 24.4 24.2 15.6 58 5.3 E 11 17 6 9 1020.9 - 0.0
29/04:30pm 25.3 24.2 15.3 54 6.0 ENE 15 22 8 12 1020.7 - 0.0
29/04:00pm 25.9 24.5 14.5 49 6.8 NE 15 22 8 12 1020.3 - 0.0
29/03:30pm 26.3 25.2 14.2 47 7.2 ENE 13 20 7 11 1020.0 - 0.0
29/03:00pm 27.0 25.5 14.3 45 7.6 ENE 15 24 8 13 1019.9 1019.9 0.0
29/02:30pm 27.1 25.8 13.7 43 7.9 E 13 20 7 11 1019.9 - 0.0
29/02:00pm 27.3 25.5 14.4 45 7.7 E 17 24 9 13 1020.1 - 0.0
29/01:30pm 26.6 25.9 14.4 47 7.3 E 11 19 6 10 1020.2 - 0.0
29/01:00pm 26.9 25.9 14.7 47 7.3 E 13 22 7 12 1020.6 - 0.0
29/12:30pm 25.7 25.2 15.8 54 6.0 E 13 19 7 10 1021.1 - 0.0
29/12:00pm 26.4 25.4 15.5 51 6.6 ESE 15 24 8 13 1021.7 1021.7 0.0
29/11:30am 26.6 25.5 15.4 50 6.8 ESE 15 22 8 12 1022.2 - 0.0
29/11:00am 25.2 24.2 16.6 59 5.3 ESE 17 24 9 13 1022.8 - 0.0
29/10:30am 24.0 24.0 17.2 65 4.2 ESE 13 19 7 10 1023.1 - 0.0
29/10:00am 23.1 22.3 17.2 69 3.6 ESE 17 24 9 13 1023.6 - 0.0
29/09:30am 22.3 21.4 16.9 71 3.3 ESE 17 26 9 14 1023.8 - 0.0
29/09:00am 21.9 21.4 16.8 73 3.1 SE 15 24 8 13 1023.8 1023.8 0.0
29/08:30am 20.9 20.3 16.6 76 2.6 SE 15 20 8 11 1023.7 - 0.0
29/08:00am 20.0 20.5 16.5 80 2.1 SE 9 17 5 9 1023.3 - 0.0
29/07:30am 19.4 20.1 16.2 82 1.9 E 7 11 4 6 1022.9 - 0.0
29/07:00am 18.1 18.3 15.7 86 1.4 SE 9 13 5 7 1022.8 - 0.0
29/06:30am 17.6 17.3 15.4 87 1.3 ESE 11 15 6 8 1022.6 - 0.0
29/06:00am 17.7 17.4 15.5 87 1.3 ESE 11 17 6 9 1022.4 1022.4 0.0
29/05:30am 18.0 18.1 15.4 85 1.5 SE 9 15 5 8 1022.1 - 0.0
29/05:00am 18.1 17.8 15.4 84 1.6 SE 11 17 6 9 1021.8 - 0.0
29/04:30am 18.3 17.6 15.4 83 1.7 ESE 13 15 7 8 1021.8 - 0.0
29/04:00am 18.2 17.6 15.6 85 1.5 ESE 13 17 7 9 1021.7 - 0.0
29/03:30am 18.1 17.6 15.9 87 1.3 ESE 13 17 7 9 1021.6 - 0.0
29/03:00am 18.1 17.6 15.9 87 1.3 ESE 13 19 7 10 1021.9 1021.9 0.0
29/02:30am 18.2 17.7 16.0 87 1.3 ESE 13 17 7 9 1021.8 - 0.0
29/02:00am 17.8 17.3 15.9 89 1.1 ESE 13 15 7 8 1021.9 - 0.0
29/01:30am 17.8 18.1 16.1 90 1.0 ESE 9 13 5 7 1022.0 - 0.0
29/01:00am 18.0 17.9 16.1 89 1.1 ESE 11 15 6 8 1022.1 - 0.0
29/12:30am 18.3 18.7 16.3 88 1.2 ESE 9 13 5 7 1022.3 - 0.0
29/12:00am 18.4 18.9 16.6 89 1.1 SE 9 13 5 7 1022.4 1022.4 0.0
 
Date/Time
EST
Temp
°C
App
Temp
°C
Dew
Point
Rel
Hum
%
Delta-T
°C
Wind Press
QNH
hPa
Press
MSL
hPa
Rain
since 9 am
mm
Dir
 
Spd
km/h
Gust
km/h
Spd
kts
Gust
kts
28/11:30pm 18.5 19.0 16.5 88 1.2 SE 9 13 5 7 1022.6 - 0.0
28/11:00pm 18.2 18.6 16.2 88 1.2 ESE 9 13 5 7 1022.7 - 0.0
28/10:30pm 18.8 19.3 16.6 87 1.3 SE 9 11 5 6 1023.0 - 0.0
28/10:00pm 19.3 19.6 17.0 86 1.4 SE 11 15 6 8 1023.0 - 0.0
28/09:30pm 19.6 19.7 17.5 88 1.3 ESE 13 17 7 9 1022.9 - 0.0
28/09:00pm 19.8 20.6 17.3 85 1.5 ESE 9 13 5 7 1022.7 1022.7 0.0
28/08:30pm 19.8 21.3 17.5 86 1.4 ESE 6 9 3 5 1022.8 - 0.0
28/08:00pm 20.5 21.0 17.4 82 1.9 ESE 11 13 6 7 1022.4 - 0.0
28/07:30pm 20.6 21.8 17.3 81 2.0 E 7 9 4 5 1022.1 - 0.0
28/07:00pm 21.3 22.1 17.4 78 2.4 E 9 15 5 8 1021.8 - 0.0
28/06:30pm 21.6 21.7 16.6 73 3.0 E 11 15 6 8 1021.5 - 0.0
28/06:00pm 21.8 22.1 16.0 69 3.5 E 9 15 5 8 1021.0 1021.0 0.0
28/05:30pm 22.3 22.1 15.6 66 4.0 E 11 20 6 11 1020.7 - 0.0
28/05:00pm 23.4 22.9 15.8 62 4.6 E 13 19 7 10 1020.5 - 0.0
28/04:30pm 24.4 22.9 14.2 53 6.0 E 15 20 8 11 1020.3 - 0.0
28/04:00pm 25.4 23.6 13.2 46 7.1 E 15 24 8 13 1020.2 - 0.0
28/03:30pm 25.7 23.7 12.7 44 7.5 E 15 22 8 12 1020.0 - 0.0
28/03:00pm 26.3 24.7 12.7 43 7.9 E 13 19 7 10 1020.1 1020.1 0.0
28/02:30pm 26.6 24.1 12.4 41 8.2 ENE 17 22 9 12 1020.1 - 0.0
28/02:00pm 26.8 25.1 13.6 44 7.8 E 15 28 8 15 1020.2 - 0.0
28/01:30pm 26.8 25.4 13.3 43 7.9 E 13 20 7 11 1020.3 - 0.0
28/01:00pm 26.5 24.6 12.9 43 7.9 E 15 20 8 11 1020.7 - 0.0
28/12:30pm 25.6 23.6 13.9 48 6.9 ESE 17 22 9 12 1021.1 - 0.0
28/12:00pm 25.3 24.0 14.7 51 6.3 ESE 15 20 8 11 1021.7 1021.7 0.0
28/11:30am 25.9 24.6 15.9 54 6.1 ESE 17 24 9 13 1022.1 - 0.0
28/11:00am 24.8 23.4 15.5 56 5.6 E 17 24 9 13 1022.4 - 0.0
28/10:30am 24.3 23.1 16.2 60 4.9 ESE 17 26 9 14 1022.7 - 0.0
28/10:00am 24.0 22.6 16.6 63 4.5 ESE 19 24 10 13 1022.9 - 0.0
28/09:30am 22.5 21.1 16.6 69 3.6 SE 19 26 10 14 1023.0 - 0.0
28/09:00am 20.9 19.1 16.1 74 2.9 ESE 20 26 11 14 1023.0 1023.0 0.0
28/08:30am 20.1 18.8 15.9 77 2.5 ESE 17 22 9 12 1022.9 - 0.0
28/08:00am 19.4 18.9 15.9 80 2.1 ESE 13 19 7 10 1022.6 - 0.0
28/07:30am 18.4 17.4 15.5 83 1.7 ESE 15 19 8 10 1022.1 - 0.0
28/07:00am 17.5 16.8 15.3 87 1.3 ESE 13 19 7 10 1022.0 - 0.0
28/06:30am 17.2 16.0 15.1 87 1.2 ESE 15 19 8 10 1021.7 - 0.0
28/06:00am 17.3 16.9 15.2 87 1.2 SE 11 15 6 8 1021.4 1021.4 0.0
28/05:30am 17.2 16.8 15.3 88 1.1 ESE 11 15 6 8 1021.1 - 0.0
28/05:00am 17.5 17.0 15.8 90 1.0 SE 13 17 7 9 1020.9 - 0.0
28/04:30am 17.5 17.7 15.8 90 1.0 SE 9 13 5 7 1020.8 - 0.0
28/04:00am 17.6 17.9 15.9 90 1.0 SE 9 11 5 6 1020.7 - 0.0
28/03:30am 17.8 18.1 15.9 89 1.1 ESE 9 13 5 7 1020.7 - 0.0
28/03:00am 17.8 17.3 15.9 89 1.1 SE 13 15 7 8 1020.6 1020.6 0.0
28/02:30am 18.1 17.7 16.1 88 1.2 ESE 13 17 7 9 1020.6 - 0.0
28/02:00am 18.2 17.6 15.6 85 1.5 ESE 13 17 7 9 1021.1 - 0.0
28/01:30am 18.4 18.6 15.7 84 1.6 E 9 13 5 7 1021.5 - 0.0
28/01:00am 17.6 17.8 15.7 89 1.1 ESE 9 13 5 7 1021.7 - 0.0
28/12:30am 17.0 17.0 15.3 90 1.0 S 9 11 5 6 1021.8 - 0.0
28/12:00am 18.5 18.4 16.0 85 1.5 SE 11 13 6 7 1021.4 1021.4 0.0
 
Date/Time
EST
Temp
°C
App
Temp
°C
Dew
Point
Rel
Hum
%
Delta-T
°C
Wind Press
QNH
hPa
Press
MSL
hPa
Rain
since 9 am
mm
Dir
 
Spd
km/h
Gust
km/h
Spd
kts
Gust
kts
27/11:30pm 18.0 18.1 15.6 86 1.4 ESE 9 13 5 7 1021.2 - 0.0
27/11:00pm 17.9 18.2 15.9 88 1.2 ESE 9 11 5 6 1021.5 - 0.0
27/10:30pm 18.2 18.6 16.2 88 1.2 SSE 9 11 5 6 1022.1 - 0.0
27/10:00pm 17.9 18.6 16.2 90 1.0 S 7 9 4 5 1021.9 - 0.0
27/09:30pm 18.1 19.8 16.1 88 1.2 W 2 7 1 4 1021.8 - 0.0
27/09:00pm 17.8 19.6 15.6 87 1.3 CALM 0 0 0 0 1021.6 1021.6 0.0
27/08:30pm 18.0 18.7 15.6 86 1.4 SSW 6 9 3 5 1021.7 - 0.0

Other Formats:

Comma delimited format used in spreadsheet applications
http://www.bom.gov.au/fwo/IDQ60801/IDQ60801.94374.axf

JavaScript Object Notation format (JSON) in row-major order
http://www.bom.gov.au/fwo/IDQ60801/IDQ60801.94374.json